sensor_id;sensor_type;location;lat;lon;timestamp;P1;durP1;ratioP1;P2;durP2;ratioP2
48327;SDS011;34136;51.022;7.082;2023-04-04T00:01:56;5.13;;;1.80;;
48327;SDS011;34136;51.022;7.082;2023-04-04T00:04:42;4.37;;;2.03;;
48327;SDS011;34136;51.022;7.082;2023-04-04T00:07:28;4.50;;;1.77;;
48327;SDS011;34136;51.022;7.082;2023-04-04T00:10:15;4.00;;;1.73;;
48327;SDS011;34136;51.022;7.082;2023-04-04T00:13:01;4.10;;;1.90;;
48327;SDS011;34136;51.022;7.082;2023-04-04T00:15:48;5.53;;;2.00;;
48327;SDS011;34136;51.022;7.082;2023-04-04T00:18:34;4.57;;;1.77;;
48327;SDS011;34136;51.022;7.082;2023-04-04T00:21:20;6.50;;;1.90;;
48327;SDS011;34136;51.022;7.082;2023-04-04T00:24:07;3.90;;;1.67;;
48327;SDS011;34136;51.022;7.082;2023-04-04T00:26:53;5.40;;;2.00;;
48327;SDS011;34136;51.022;7.082;2023-04-04T00:29:40;5.97;;;2.03;;
48327;SDS011;34136;51.022;7.082;2023-04-04T00:32:26;5.00;;;1.83;;
48327;SDS011;34136;51.022;7.082;2023-04-04T00:35:12;5.23;;;2.33;;
48327;SDS011;34136;51.022;7.082;2023-04-04T00:37:59;6.43;;;1.87;;
48327;SDS011;34136;51.022;7.082;2023-04-04T00:40:46;5.60;;;1.97;;
48327;SDS011;34136;51.022;7.082;2023-04-04T00:43:34;6.13;;;1.70;;
48327;SDS011;34136;51.022;7.082;2023-04-04T00:46:20;4.83;;;1.70;;
48327;SDS011;34136;51.022;7.082;2023-04-04T00:49:06;6.67;;;2.50;;
48327;SDS011;34136;51.022;7.082;2023-04-04T00:51:53;5.07;;;2.20;;
48327;SDS011;34136;51.022;7.082;2023-04-04T00:54:39;3.47;;;1.60;;
48327;SDS011;34136;51.022;7.082;2023-04-04T00:57:26;4.70;;;1.50;;
48327;SDS011;34136;51.022;7.082;2023-04-04T01:00:13;4.53;;;1.90;;
48327;SDS011;34136;51.022;7.082;2023-04-04T01:03:00;3.90;;;2.07;;
48327;SDS011;34136;51.022;7.082;2023-04-04T01:05:46;6.17;;;2.20;;
48327;SDS011;34136;51.022;7.082;2023-04-04T01:08:35;4.57;;;1.87;;
48327;SDS011;34136;51.022;7.082;2023-04-04T01:11:22;4.43;;;2.10;;
48327;SDS011;34136;51.022;7.082;2023-04-04T01:14:09;4.10;;;2.00;;
48327;SDS011;34136;51.022;7.082;2023-04-04T01:16:55;5.03;;;2.17;;
48327;SDS011;34136;51.022;7.082;2023-04-04T01:19:52;4.10;;;2.22;;
48327;SDS011;34136;51.022;7.082;2023-04-04T01:22:51;5.37;;;2.03;;
48327;SDS011;34136;51.022;7.082;2023-04-04T01:25:40;4.70;;;1.83;;
48327;SDS011;34136;51.022;7.082;2023-04-04T01:28:31;6.60;;;2.22;;
48327;SDS011;34136;51.022;7.082;2023-04-04T01:31:21;4.00;;;1.80;;
48327;SDS011;34136;51.022;7.082;2023-04-04T01:34:16;4.60;;;1.67;;
48327;SDS011;34136;51.022;7.082;2023-04-04T01:40:25;6.37;;;1.87;;
48327;SDS011;34136;51.022;7.082;2023-04-04T01:43:16;5.93;;;2.35;;
48327;SDS011;34136;51.022;7.082;2023-04-04T01:46:04;5.10;;;1.93;;
48327;SDS011;34136;51.022;7.082;2023-04-04T01:48:51;4.40;;;2.13;;
48327;SDS011;34136;51.022;7.082;2023-04-04T01:51:43;5.47;;;1.97;;
48327;SDS011;34136;51.022;7.082;2023-04-04T01:54:29;4.80;;;2.07;;
48327;SDS011;34136;51.022;7.082;2023-04-04T01:57:16;4.90;;;2.10;;
48327;SDS011;34136;51.022;7.082;2023-04-04T02:00:03;5.63;;;2.30;;
48327;SDS011;34136;51.022;7.082;2023-04-04T02:03:01;4.47;;;1.97;;
48327;SDS011;34136;51.022;7.082;2023-04-04T02:05:47;5.43;;;2.00;;
48327;SDS011;34136;51.022;7.082;2023-04-04T02:08:33;5.63;;;2.20;;
48327;SDS011;34136;51.022;7.082;2023-04-04T02:11:19;7.77;;;2.20;;
48327;SDS011;34136;51.022;7.082;2023-04-04T02:14:06;4.13;;;2.03;;
48327;SDS011;34136;51.022;7.082;2023-04-04T02:16:52;7.10;;;3.10;;
48327;SDS011;34136;51.022;7.082;2023-04-04T02:19:38;4.80;;;1.90;;
48327;SDS011;34136;51.022;7.082;2023-04-04T02:22:24;3.43;;;2.10;;
48327;SDS011;34136;51.022;7.082;2023-04-04T02:25:11;4.33;;;2.00;;
48327;SDS011;34136;51.022;7.082;2023-04-04T02:27:57;8.13;;;3.60;;
48327;SDS011;34136;51.022;7.082;2023-04-04T02:30:43;7.90;;;3.53;;
48327;SDS011;34136;51.022;7.082;2023-04-04T02:33:30;11.10;;;3.80;;
48327;SDS011;34136;51.022;7.082;2023-04-04T02:36:19;13.43;;;4.57;;
48327;SDS011;34136;51.022;7.082;2023-04-04T02:39:07;7.07;;;3.67;;
48327;SDS011;34136;51.022;7.082;2023-04-04T02:41:55;5.97;;;2.70;;
48327;SDS011;34136;51.022;7.082;2023-04-04T02:44:41;6.87;;;2.83;;
48327;SDS011;34136;51.022;7.082;2023-04-04T02:47:31;7.30;;;3.07;;
48327;SDS011;34136;51.022;7.082;2023-04-04T02:50:18;7.67;;;3.53;;
48327;SDS011;34136;51.022;7.082;2023-04-04T02:53:11;10.07;;;4.30;;
48327;SDS011;34136;51.022;7.082;2023-04-04T02:55:58;9.37;;;4.17;;
48327;SDS011;34136;51.022;7.082;2023-04-04T02:58:46;10.37;;;4.33;;
48327;SDS011;34136;51.022;7.082;2023-04-04T03:01:33;14.87;;;4.50;;
48327;SDS011;34136;51.022;7.082;2023-04-04T03:04:21;7.50;;;3.03;;
48327;SDS011;34136;51.022;7.082;2023-04-04T03:07:08;4.50;;;2.53;;
48327;SDS011;34136;51.022;7.082;2023-04-04T03:09:54;9.53;;;3.60;;
48327;SDS011;34136;51.022;7.082;2023-04-04T03:12:40;8.13;;;3.57;;
48327;SDS011;34136;51.022;7.082;2023-04-04T03:15:27;10.17;;;3.60;;
48327;SDS011;34136;51.022;7.082;2023-04-04T03:18:13;8.23;;;2.87;;
48327;SDS011;34136;51.022;7.082;2023-04-04T03:20:59;8.27;;;3.63;;
48327;SDS011;34136;51.022;7.082;2023-04-04T03:23:46;6.53;;;3.23;;
48327;SDS011;34136;51.022;7.082;2023-04-04T03:26:32;6.97;;;3.13;;
48327;SDS011;34136;51.022;7.082;2023-04-04T03:29:18;7.27;;;3.47;;
48327;SDS011;34136;51.022;7.082;2023-04-04T03:32:05;6.53;;;2.43;;
48327;SDS011;34136;51.022;7.082;2023-04-04T03:34:51;5.57;;;2.70;;
48327;SDS011;34136;51.022;7.082;2023-04-04T03:37:38;7.27;;;3.00;;
48327;SDS011;34136;51.022;7.082;2023-04-04T03:40:24;8.17;;;3.50;;
48327;SDS011;34136;51.022;7.082;2023-04-04T03:43:10;6.60;;;2.40;;
48327;SDS011;34136;51.022;7.082;2023-04-04T03:46:03;6.70;;;2.70;;
48327;SDS011;34136;51.022;7.082;2023-04-04T03:48:50;7.97;;;3.03;;
48327;SDS011;34136;51.022;7.082;2023-04-04T03:51:36;8.80;;;3.50;;
48327;SDS011;34136;51.022;7.082;2023-04-04T03:54:23;8.30;;;3.63;;
48327;SDS011;34136;51.022;7.082;2023-04-04T03:57:09;10.33;;;3.80;;
48327;SDS011;34136;51.022;7.082;2023-04-04T03:59:56;7.60;;;3.23;;
48327;SDS011;34136;51.022;7.082;2023-04-04T04:02:42;9.00;;;3.77;;
48327;SDS011;34136;51.022;7.082;2023-04-04T04:05:29;6.93;;;3.13;;
48327;SDS011;34136;51.022;7.082;2023-04-04T04:08:15;5.87;;;2.97;;
48327;SDS011;34136;51.022;7.082;2023-04-04T04:11:03;6.17;;;2.73;;
48327;SDS011;34136;51.022;7.082;2023-04-04T04:13:51;8.53;;;3.07;;
48327;SDS011;34136;51.022;7.082;2023-04-04T04:16:38;5.60;;;3.00;;
48327;SDS011;34136;51.022;7.082;2023-04-04T04:19:24;6.17;;;2.10;;
48327;SDS011;34136;51.022;7.082;2023-04-04T04:22:10;5.70;;;2.27;;
48327;SDS011;34136;51.022;7.082;2023-04-04T04:24:57;6.57;;;2.40;;
48327;SDS011;34136;51.022;7.082;2023-04-04T04:27:43;4.60;;;1.80;;
48327;SDS011;34136;51.022;7.082;2023-04-04T04:30:29;5.10;;;1.93;;
48327;SDS011;34136;51.022;7.082;2023-04-04T04:33:16;5.97;;;2.10;;
48327;SDS011;34136;51.022;7.082;2023-04-04T04:36:15;4.63;;;1.80;;
48327;SDS011;34136;51.022;7.082;2023-04-04T04:39:10;7.30;;;2.50;;
48327;SDS011;34136;51.022;7.082;2023-04-04T04:42:01;4.33;;;2.00;;
48327;SDS011;34136;51.022;7.082;2023-04-04T04:44:47;5.37;;;2.33;;
48327;SDS011;34136;51.022;7.082;2023-04-04T04:47:33;4.47;;;2.03;;
48327;SDS011;34136;51.022;7.082;2023-04-04T04:50:23;3.80;;;2.17;;
48327;SDS011;34136;51.022;7.082;2023-04-04T04:53:09;6.00;;;2.20;;
48327;SDS011;34136;51.022;7.082;2023-04-04T04:55:56;4.00;;;2.13;;
48327;SDS011;34136;51.022;7.082;2023-04-04T04:58:42;6.90;;;2.20;;
48327;SDS011;34136;51.022;7.082;2023-04-04T05:01:29;5.63;;;2.17;;
48327;SDS011;34136;51.022;7.082;2023-04-04T05:04:16;6.47;;;2.60;;
48327;SDS011;34136;51.022;7.082;2023-04-04T05:07:14;5.37;;;2.03;;
48327;SDS011;34136;51.022;7.082;2023-04-04T05:10:04;5.27;;;2.20;;
48327;SDS011;34136;51.022;7.082;2023-04-04T05:12:50;4.40;;;2.00;;
48327;SDS011;34136;51.022;7.082;2023-04-04T05:15:40;7.83;;;2.30;;
48327;SDS011;34136;51.022;7.082;2023-04-04T05:18:27;6.83;;;2.00;;
48327;SDS011;34136;51.022;7.082;2023-04-04T05:21:14;6.80;;;2.77;;
48327;SDS011;34136;51.022;7.082;2023-04-04T05:24:01;4.17;;;2.13;;
48327;SDS011;34136;51.022;7.082;2023-04-04T05:26:48;4.70;;;2.03;;
48327;SDS011;34136;51.022;7.082;2023-04-04T05:29:34;3.93;;;2.10;;
48327;SDS011;34136;51.022;7.082;2023-04-04T05:32:22;7.63;;;2.40;;
48327;SDS011;34136;51.022;7.082;2023-04-04T05:35:17;4.40;;;1.97;;
48327;SDS011;34136;51.022;7.082;2023-04-04T05:38:04;5.27;;;2.90;;
48327;SDS011;34136;51.022;7.082;2023-04-04T05:40:53;7.43;;;2.77;;
48327;SDS011;34136;51.022;7.082;2023-04-04T05:43:40;12.23;;;2.70;;
48327;SDS011;34136;51.022;7.082;2023-04-04T05:46:32;4.80;;;2.40;;
48327;SDS011;34136;51.022;7.082;2023-04-04T05:49:19;5.17;;;2.20;;
48327;SDS011;34136;51.022;7.082;2023-04-04T05:52:14;6.53;;;2.50;;
48327;SDS011;34136;51.022;7.082;2023-04-04T05:55:00;6.93;;;2.30;;
48327;SDS011;34136;51.022;7.082;2023-04-04T05:57:50;4.43;;;2.37;;
48327;SDS011;34136;51.022;7.082;2023-04-04T06:00:42;3.83;;;1.93;;
48327;SDS011;34136;51.022;7.082;2023-04-04T06:03:28;6.60;;;2.60;;
48327;SDS011;34136;51.022;7.082;2023-04-04T06:06:16;5.73;;;2.40;;
48327;SDS011;34136;51.022;7.082;2023-04-04T06:09:03;5.27;;;2.20;;
48327;SDS011;34136;51.022;7.082;2023-04-04T06:11:49;3.97;;;2.20;;
48327;SDS011;34136;51.022;7.082;2023-04-04T06:14:36;5.40;;;2.20;;
48327;SDS011;34136;51.022;7.082;2023-04-04T06:17:24;5.87;;;2.43;;
48327;SDS011;34136;51.022;7.082;2023-04-04T06:20:11;4.37;;;1.97;;
48327;SDS011;34136;51.022;7.082;2023-04-04T06:22:58;5.60;;;2.57;;
48327;SDS011;34136;51.022;7.082;2023-04-04T06:25:45;5.97;;;2.57;;
48327;SDS011;34136;51.022;7.082;2023-04-04T06:28:35;4.70;;;2.57;;
48327;SDS011;34136;51.022;7.082;2023-04-04T06:31:22;3.73;;;2.30;;
48327;SDS011;34136;51.022;7.082;2023-04-04T06:34:09;9.20;;;2.60;;
48327;SDS011;34136;51.022;7.082;2023-04-04T06:37:08;6.43;;;2.80;;
48327;SDS011;34136;51.022;7.082;2023-04-04T06:40:02;4.93;;;2.30;;
48327;SDS011;34136;51.022;7.082;2023-04-04T06:42:49;4.60;;;2.80;;
48327;SDS011;34136;51.022;7.082;2023-04-04T06:45:36;7.00;;;2.13;;
48327;SDS011;34136;51.022;7.082;2023-04-04T06:48:23;4.23;;;2.20;;
48327;SDS011;34136;51.022;7.082;2023-04-04T06:51:09;5.20;;;3.00;;
48327;SDS011;34136;51.022;7.082;2023-04-04T06:54:00;6.13;;;2.70;;
48327;SDS011;34136;51.022;7.082;2023-04-04T06:56:47;9.00;;;2.70;;
48327;SDS011;34136;51.022;7.082;2023-04-04T06:59:33;6.67;;;2.67;;
48327;SDS011;34136;51.022;7.082;2023-04-04T07:02:20;6.20;;;2.40;;
48327;SDS011;34136;51.022;7.082;2023-04-04T07:05:06;10.23;;;2.93;;
48327;SDS011;34136;51.022;7.082;2023-04-04T07:07:53;6.47;;;2.27;;
48327;SDS011;34136;51.022;7.082;2023-04-04T07:10:40;4.47;;;2.40;;
48327;SDS011;34136;51.022;7.082;2023-04-04T07:13:26;4.67;;;2.50;;
48327;SDS011;34136;51.022;7.082;2023-04-04T07:16:12;4.37;;;2.17;;
48327;SDS011;34136;51.022;7.082;2023-04-04T07:18:59;10.03;;;2.10;;
48327;SDS011;34136;51.022;7.082;2023-04-04T07:21:45;7.10;;;2.33;;
48327;SDS011;34136;51.022;7.082;2023-04-04T07:24:31;6.00;;;2.20;;
48327;SDS011;34136;51.022;7.082;2023-04-04T07:27:17;4.77;;;2.10;;
48327;SDS011;34136;51.022;7.082;2023-04-04T07:30:04;4.17;;;2.00;;
48327;SDS011;34136;51.022;7.082;2023-04-04T07:32:57;6.03;;;2.00;;
48327;SDS011;34136;51.022;7.082;2023-04-04T07:35:44;3.73;;;1.83;;
48327;SDS011;34136;51.022;7.082;2023-04-04T07:38:31;3.37;;;1.90;;
48327;SDS011;34136;51.022;7.082;2023-04-04T07:41:17;4.67;;;1.77;;
48327;SDS011;34136;51.022;7.082;2023-04-04T07:44:03;3.10;;;1.70;;
48327;SDS011;34136;51.022;7.082;2023-04-04T07:46:49;3.43;;;1.70;;
48327;SDS011;34136;51.022;7.082;2023-04-04T07:49:36;4.90;;;1.80;;
48327;SDS011;34136;51.022;7.082;2023-04-04T07:52:23;4.07;;;1.80;;
48327;SDS011;34136;51.022;7.082;2023-04-04T07:55:09;5.07;;;1.60;;
48327;SDS011;34136;51.022;7.082;2023-04-04T07:57:55;3.47;;;1.95;;
48327;SDS011;34136;51.022;7.082;2023-04-04T08:00:45;5.63;;;2.00;;
48327;SDS011;34136;51.022;7.082;2023-04-04T08:03:31;3.90;;;1.70;;
48327;SDS011;34136;51.022;7.082;2023-04-04T08:06:17;5.97;;;2.10;;
48327;SDS011;34136;51.022;7.082;2023-04-04T08:09:04;6.60;;;1.80;;
48327;SDS011;34136;51.022;7.082;2023-04-04T08:11:50;7.88;;;1.83;;
48327;SDS011;34136;51.022;7.082;2023-04-04T08:14:36;6.57;;;2.55;;
48327;SDS011;34136;51.022;7.082;2023-04-04T08:17:22;4.70;;;2.28;;
48327;SDS011;34136;51.022;7.082;2023-04-04T08:20:09;8.13;;;1.80;;
48327;SDS011;34136;51.022;7.082;2023-04-04T08:22:56;4.63;;;2.10;;
48327;SDS011;34136;51.022;7.082;2023-04-04T08:25:42;4.40;;;1.80;;
48327;SDS011;34136;51.022;7.082;2023-04-04T08:28:28;4.30;;;1.60;;
48327;SDS011;34136;51.022;7.082;2023-04-04T08:31:14;4.53;;;1.83;;
48327;SDS011;34136;51.022;7.082;2023-04-04T08:34:01;3.97;;;2.40;;
48327;SDS011;34136;51.022;7.082;2023-04-04T08:36:47;7.10;;;2.47;;
48327;SDS011;34136;51.022;7.082;2023-04-04T08:39:33;4.75;;;2.17;;
48327;SDS011;34136;51.022;7.082;2023-04-04T08:42:20;4.88;;;2.35;;
48327;SDS011;34136;51.022;7.082;2023-04-04T08:45:09;3.47;;;2.05;;
48327;SDS011;34136;51.022;7.082;2023-04-04T08:47:57;3.10;;;2.20;;
48327;SDS011;34136;51.022;7.082;2023-04-04T08:50:45;3.92;;;2.05;;
48327;SDS011;34136;51.022;7.082;2023-04-04T08:53:33;3.35;;;2.10;;
48327;SDS011;34136;51.022;7.082;2023-04-04T08:56:21;4.10;;;2.22;;
48327;SDS011;34136;51.022;7.082;2023-04-04T08:59:08;5.45;;;2.10;;
48327;SDS011;34136;51.022;7.082;2023-04-04T09:02:03;3.50;;;2.03;;
48327;SDS011;34136;51.022;7.082;2023-04-04T09:05:01;4.43;;;2.22;;
48327;SDS011;34136;51.022;7.082;2023-04-04T09:07:48;4.18;;;2.20;;
48327;SDS011;34136;51.022;7.082;2023-04-04T09:10:36;5.07;;;2.40;;
48327;SDS011;34136;51.022;7.082;2023-04-04T09:13:23;6.80;;;2.20;;
48327;SDS011;34136;51.022;7.082;2023-04-04T09:16:09;6.13;;;2.13;;
48327;SDS011;34136;51.022;7.082;2023-04-04T09:18:56;4.22;;;2.30;;
48327;SDS011;34136;51.022;7.082;2023-04-04T09:21:45;4.70;;;2.22;;
48327;SDS011;34136;51.022;7.082;2023-04-04T09:24:36;4.13;;;2.33;;
48327;SDS011;34136;51.022;7.082;2023-04-04T09:27:27;4.88;;;2.10;;
48327;SDS011;34136;51.022;7.082;2023-04-04T09:30:13;3.72;;;2.05;;
48327;SDS011;34136;51.022;7.082;2023-04-04T09:33:00;4.90;;;1.98;;
48327;SDS011;34136;51.022;7.082;2023-04-04T09:35:50;4.95;;;2.38;;
48327;SDS011;34136;51.022;7.082;2023-04-04T09:38:40;4.80;;;2.10;;
48327;SDS011;34136;51.022;7.082;2023-04-04T09:41:26;5.85;;;2.25;;
48327;SDS011;34136;51.022;7.082;2023-04-04T09:44:13;4.82;;;2.67;;
48327;SDS011;34136;51.022;7.082;2023-04-04T09:50:12;6.65;;;2.60;;
48327;SDS011;34136;51.022;7.082;2023-04-04T09:53:14;4.70;;;2.35;;
48327;SDS011;34136;51.022;7.082;2023-04-04T09:56:02;5.15;;;2.20;;
48327;SDS011;34136;51.022;7.082;2023-04-04T09:58:48;4.78;;;2.30;;
48327;SDS011;34136;51.022;7.082;2023-04-04T10:01:35;4.55;;;2.55;;
48327;SDS011;34136;51.022;7.082;2023-04-04T10:04:23;5.13;;;2.45;;
48327;SDS011;34136;51.022;7.082;2023-04-04T10:07:12;5.50;;;2.63;;
48327;SDS011;34136;51.022;7.082;2023-04-04T10:10:03;3.88;;;2.13;;
48327;SDS011;34136;51.022;7.082;2023-04-04T10:12:51;3.65;;;2.47;;
48327;SDS011;34136;51.022;7.082;2023-04-04T10:15:38;4.18;;;2.33;;
48327;SDS011;34136;51.022;7.082;2023-04-04T10:18:30;4.40;;;2.45;;
48327;SDS011;34136;51.022;7.082;2023-04-04T10:21:18;5.72;;;2.60;;
48327;SDS011;34136;51.022;7.082;2023-04-04T10:24:04;4.32;;;2.30;;
48327;SDS011;34136;51.022;7.082;2023-04-04T10:26:52;6.28;;;2.35;;
48327;SDS011;34136;51.022;7.082;2023-04-04T10:29:38;5.45;;;2.63;;
48327;SDS011;34136;51.022;7.082;2023-04-04T10:35:20;3.88;;;2.22;;
48327;SDS011;34136;51.022;7.082;2023-04-04T10:38:08;5.07;;;2.72;;
48327;SDS011;34136;51.022;7.082;2023-04-04T10:40:56;5.95;;;2.70;;
48327;SDS011;34136;51.022;7.082;2023-04-04T10:43:44;4.07;;;2.20;;
48327;SDS011;34136;51.022;7.082;2023-04-04T10:46:32;3.50;;;2.30;;
48327;SDS011;34136;51.022;7.082;2023-04-04T10:49:20;2.67;;;2.00;;
48327;SDS011;34136;51.022;7.082;2023-04-04T10:52:07;5.93;;;2.80;;
48327;SDS011;34136;51.022;7.082;2023-04-04T10:54:56;5.32;;;2.40;;
48327;SDS011;34136;51.022;7.082;2023-04-04T10:57:45;4.60;;;2.30;;
48327;SDS011;34136;51.022;7.082;2023-04-04T11:00:38;5.20;;;2.33;;
48327;SDS011;34136;51.022;7.082;2023-04-04T11:09:58;3.33;;;2.20;;
48327;SDS011;34136;51.022;7.082;2023-04-04T11:12:45;3.15;;;2.35;;
48327;SDS011;34136;51.022;7.082;2023-04-04T11:21:26;4.80;;;2.05;;
48327;SDS011;34136;51.022;7.082;2023-04-04T11:24:16;3.83;;;1.70;;
48327;SDS011;34136;51.022;7.082;2023-04-04T11:27:03;4.03;;;1.92;;
48327;SDS011;34136;51.022;7.082;2023-04-04T11:29:51;4.15;;;2.20;;
48327;SDS011;34136;51.022;7.082;2023-04-04T11:32:41;3.28;;;2.08;;
48327;SDS011;34136;51.022;7.082;2023-04-04T11:35:28;4.65;;;2.40;;
48327;SDS011;34136;51.022;7.082;2023-04-04T11:38:15;3.40;;;1.70;;
48327;SDS011;34136;51.022;7.082;2023-04-04T11:41:01;4.40;;;1.90;;
48327;SDS011;34136;51.022;7.082;2023-04-04T11:43:48;3.65;;;2.45;;
48327;SDS011;34136;51.022;7.082;2023-04-04T11:46:35;4.28;;;1.98;;
48327;SDS011;34136;51.022;7.082;2023-04-04T11:49:25;3.40;;;1.70;;
48327;SDS011;34136;51.022;7.082;2023-04-04T11:52:13;3.25;;;1.60;;
48327;SDS011;34136;51.022;7.082;2023-04-04T11:55:01;3.50;;;1.90;;
48327;SDS011;34136;51.022;7.082;2023-04-04T11:58:09;3.22;;;1.80;;
48327;SDS011;34136;51.022;7.082;2023-04-04T12:00:56;3.25;;;2.10;;
48327;SDS011;34136;51.022;7.082;2023-04-04T12:03:43;3.08;;;2.05;;
48327;SDS011;34136;51.022;7.082;2023-04-04T12:06:29;3.58;;;1.55;;
48327;SDS011;34136;51.022;7.082;2023-04-04T12:09:16;4.18;;;2.20;;
48327;SDS011;34136;51.022;7.082;2023-04-04T12:12:03;3.35;;;1.88;;
48327;SDS011;34136;51.022;7.082;2023-04-04T12:14:50;3.53;;;1.92;;
48327;SDS011;34136;51.022;7.082;2023-04-04T12:17:38;3.65;;;2.10;;
48327;SDS011;34136;51.022;7.082;2023-04-04T12:20:28;3.75;;;1.70;;
48327;SDS011;34136;51.022;7.082;2023-04-04T12:23:14;4.45;;;2.20;;
48327;SDS011;34136;51.022;7.082;2023-04-04T12:26:01;3.75;;;2.08;;
48327;SDS011;34136;51.022;7.082;2023-04-04T12:28:49;4.53;;;2.08;;
48327;SDS011;34136;51.022;7.082;2023-04-04T12:31:36;3.28;;;1.85;;
48327;SDS011;34136;51.022;7.082;2023-04-04T12:34:30;3.60;;;1.70;;
48327;SDS011;34136;51.022;7.082;2023-04-04T12:37:20;3.33;;;1.70;;
48327;SDS011;34136;51.022;7.082;2023-04-04T12:40:07;4.20;;;1.67;;
48327;SDS011;34136;51.022;7.082;2023-04-04T12:42:56;3.13;;;1.60;;
48327;SDS011;34136;51.022;7.082;2023-04-04T12:45:42;3.53;;;1.83;;
48327;SDS011;34136;51.022;7.082;2023-04-04T12:48:29;4.05;;;1.83;;
48327;SDS011;34136;51.022;7.082;2023-04-04T12:51:16;3.83;;;1.85;;
48327;SDS011;34136;51.022;7.082;2023-04-04T12:54:05;3.65;;;1.90;;
48327;SDS011;34136;51.022;7.082;2023-04-04T12:56:58;4.70;;;2.00;;
48327;SDS011;34136;51.022;7.082;2023-04-04T12:59:47;3.90;;;1.73;;
48327;SDS011;34136;51.022;7.082;2023-04-04T13:02:34;4.80;;;1.80;;
48327;SDS011;34136;51.022;7.082;2023-04-04T13:05:23;3.28;;;1.70;;
48327;SDS011;34136;51.022;7.082;2023-04-04T13:08:10;5.10;;;2.28;;
48327;SDS011;34136;51.022;7.082;2023-04-04T13:13:43;4.03;;;1.80;;
48327;SDS011;34136;51.022;7.082;2023-04-04T13:16:31;3.85;;;1.80;;
48327;SDS011;34136;51.022;7.082;2023-04-04T13:19:19;5.28;;;2.35;;
48327;SDS011;34136;51.022;7.082;2023-04-04T13:22:06;4.28;;;1.92;;
48327;SDS011;34136;51.022;7.082;2023-04-04T13:24:54;4.05;;;1.73;;
48327;SDS011;34136;51.022;7.082;2023-04-04T13:27:40;4.13;;;1.52;;
48327;SDS011;34136;51.022;7.082;2023-04-04T13:30:26;3.70;;;1.52;;
48327;SDS011;34136;51.022;7.082;2023-04-04T13:33:13;3.97;;;1.75;;
48327;SDS011;34136;51.022;7.082;2023-04-04T13:36:03;3.72;;;1.67;;
48327;SDS011;34136;51.022;7.082;2023-04-04T13:38:50;3.97;;;1.88;;
48327;SDS011;34136;51.022;7.082;2023-04-04T13:41:36;3.63;;;1.70;;
48327;SDS011;34136;51.022;7.082;2023-04-04T13:44:23;5.72;;;1.85;;
48327;SDS011;34136;51.022;7.082;2023-04-04T13:47:09;3.70;;;1.95;;
48327;SDS011;34136;51.022;7.082;2023-04-04T13:49:55;4.20;;;1.92;;
48327;SDS011;34136;51.022;7.082;2023-04-04T13:52:41;2.92;;;1.85;;
48327;SDS011;34136;51.022;7.082;2023-04-04T13:55:28;5.60;;;2.00;;
48327;SDS011;34136;51.022;7.082;2023-04-04T13:58:14;2.35;;;1.48;;
48327;SDS011;34136;51.022;7.082;2023-04-04T14:01:01;2.90;;;1.75;;
48327;SDS011;34136;51.022;7.082;2023-04-04T14:03:47;4.72;;;2.25;;
48327;SDS011;34136;51.022;7.082;2023-04-04T14:06:34;3.33;;;1.85;;
48327;SDS011;34136;51.022;7.082;2023-04-04T14:09:20;4.43;;;3.10;;
48327;SDS011;34136;51.022;7.082;2023-04-04T14:12:07;3.97;;;2.05;;
48327;SDS011;34136;51.022;7.082;2023-04-04T14:14:53;4.75;;;2.20;;
48327;SDS011;34136;51.022;7.082;2023-04-04T14:17:40;5.63;;;2.40;;
48327;SDS011;34136;51.022;7.082;2023-04-04T14:20:27;4.55;;;2.08;;
48327;SDS011;34136;51.022;7.082;2023-04-04T14:23:13;4.78;;;2.20;;
48327;SDS011;34136;51.022;7.082;2023-04-04T14:25:59;3.42;;;2.20;;
48327;SDS011;34136;51.022;7.082;2023-04-04T14:28:46;3.45;;;2.08;;
48327;SDS011;34136;51.022;7.082;2023-04-04T14:31:32;5.97;;;1.90;;
48327;SDS011;34136;51.022;7.082;2023-04-04T14:34:18;3.50;;;1.92;;
48327;SDS011;34136;51.022;7.082;2023-04-04T14:37:05;5.50;;;2.00;;
48327;SDS011;34136;51.022;7.082;2023-04-04T14:39:51;4.22;;;2.67;;
48327;SDS011;34136;51.022;7.082;2023-04-04T14:42:37;4.97;;;2.22;;
48327;SDS011;34136;51.022;7.082;2023-04-04T14:45:24;4.18;;;2.28;;
48327;SDS011;34136;51.022;7.082;2023-04-04T14:48:11;6.45;;;2.60;;
48327;SDS011;34136;51.022;7.082;2023-04-04T14:50:57;4.63;;;2.55;;
48327;SDS011;34136;51.022;7.082;2023-04-04T14:53:44;4.55;;;2.55;;
48327;SDS011;34136;51.022;7.082;2023-04-04T14:56:31;4.38;;;2.47;;
48327;SDS011;34136;51.022;7.082;2023-04-04T14:59:17;5.25;;;2.33;;
48327;SDS011;34136;51.022;7.082;2023-04-04T15:02:04;6.63;;;2.40;;
48327;SDS011;34136;51.022;7.082;2023-04-04T15:04:50;4.05;;;2.60;;
48327;SDS011;34136;51.022;7.082;2023-04-04T15:07:36;6.05;;;2.70;;
48327;SDS011;34136;51.022;7.082;2023-04-04T15:10:23;5.68;;;2.55;;
48327;SDS011;34136;51.022;7.082;2023-04-04T15:13:12;6.47;;;2.70;;
48327;SDS011;34136;51.022;7.082;2023-04-04T15:15:58;4.75;;;2.20;;
48327;SDS011;34136;51.022;7.082;2023-04-04T15:18:45;4.30;;;2.25;;
48327;SDS011;34136;51.022;7.082;2023-04-04T15:21:31;4.45;;;2.28;;
48327;SDS011;34136;51.022;7.082;2023-04-04T15:24:17;4.70;;;2.75;;
48327;SDS011;34136;51.022;7.082;2023-04-04T15:27:03;5.20;;;2.50;;
48327;SDS011;34136;51.022;7.082;2023-04-04T15:29:50;6.13;;;2.47;;
48327;SDS011;34136;51.022;7.082;2023-04-04T15:32:36;5.03;;;3.00;;
48327;SDS011;34136;51.022;7.082;2023-04-04T15:35:22;5.20;;;2.47;;
48327;SDS011;34136;51.022;7.082;2023-04-04T15:38:09;6.10;;;2.80;;
48327;SDS011;34136;51.022;7.082;2023-04-04T15:40:55;4.82;;;2.63;;
48327;SDS011;34136;51.022;7.082;2023-04-04T15:43:41;7.13;;;2.72;;
48327;SDS011;34136;51.022;7.082;2023-04-04T15:46:29;4.63;;;2.30;;
48327;SDS011;34136;51.022;7.082;2023-04-04T15:49:15;6.50;;;2.67;;
48327;SDS011;34136;51.022;7.082;2023-04-04T15:52:02;7.45;;;3.65;;
48327;SDS011;34136;51.022;7.082;2023-04-04T15:54:48;4.20;;;2.75;;
48327;SDS011;34136;51.022;7.082;2023-04-04T15:57:35;4.72;;;2.45;;
48327;SDS011;34136;51.022;7.082;2023-04-04T16:00:21;8.23;;;2.72;;
48327;SDS011;34136;51.022;7.082;2023-04-04T16:03:07;4.57;;;2.80;;
48327;SDS011;34136;51.022;7.082;2023-04-04T16:05:53;5.72;;;2.60;;
48327;SDS011;34136;51.022;7.082;2023-04-04T16:08:41;4.63;;;2.25;;
48327;SDS011;34136;51.022;7.082;2023-04-04T16:11:27;5.60;;;2.38;;
48327;SDS011;34136;51.022;7.082;2023-04-04T16:14:14;6.18;;;2.60;;
48327;SDS011;34136;51.022;7.082;2023-04-04T16:17:01;5.80;;;2.92;;
48327;SDS011;34136;51.022;7.082;2023-04-04T16:19:47;3.75;;;2.53;;
48327;SDS011;34136;51.022;7.082;2023-04-04T16:22:33;6.18;;;2.45;;
48327;SDS011;34136;51.022;7.082;2023-04-04T16:25:20;5.32;;;2.70;;
48327;SDS011;34136;51.022;7.082;2023-04-04T16:28:06;5.30;;;2.45;;
48327;SDS011;34136;51.022;7.082;2023-04-04T17:38:30;5.70;;;2.90;;
48327;SDS011;34136;51.022;7.082;2023-04-04T17:41:16;6.85;;;2.72;;
48327;SDS011;34136;51.022;7.082;2023-04-04T17:44:02;5.63;;;3.10;;
48327;SDS011;34136;51.022;7.082;2023-04-04T17:46:48;6.38;;;2.85;;
48327;SDS011;34136;51.022;7.082;2023-04-04T17:49:35;6.30;;;2.63;;
48327;SDS011;34136;51.022;7.082;2023-04-04T17:52:21;5.97;;;2.80;;
48327;SDS011;34136;51.022;7.082;2023-04-04T17:55:07;3.55;;;2.47;;
48327;SDS011;34136;51.022;7.082;2023-04-04T17:57:55;5.20;;;2.58;;
48327;SDS011;34136;51.022;7.082;2023-04-04T18:00:41;6.57;;;2.75;;
48327;SDS011;34136;51.022;7.082;2023-04-04T18:03:27;3.75;;;2.50;;
48327;SDS011;34136;51.022;7.082;2023-04-04T18:06:14;5.43;;;2.80;;
48327;SDS011;34136;51.022;7.082;2023-04-04T18:09:00;4.60;;;2.67;;
48327;SDS011;34136;51.022;7.082;2023-04-04T18:11:47;7.45;;;2.53;;
48327;SDS011;34136;51.022;7.082;2023-04-04T18:14:33;3.85;;;2.38;;
48327;SDS011;34136;51.022;7.082;2023-04-04T18:17:19;7.32;;;3.00;;
48327;SDS011;34136;51.022;7.082;2023-04-04T18:20:05;6.28;;;3.05;;
48327;SDS011;34136;51.022;7.082;2023-04-04T18:22:52;4.72;;;2.92;;